Time;durP1;ratioP1;P1;durP2;ratioP2;P2;SDS_P1;SDS_P2;PMS_P1;PMS_P2;Temp;Humidity;BMP_temperature;BMP_pressure;BME280_temperature;BME280_humidity;BME280_pressure;Samples;Min_cycle;Max_cycle;Signal;HPM_P1;HPM_P2
2022/10/03 00:00:01;;;;;;;;;;;9.20;99.90;;;;;;4211925;28;19920;-63
2022/10/03 00:02:25;;;;;;;;;;;9.20;99.90;;;;;;4212144;28;19949;-61
2022/10/03 00:04:29;;;;;;;;;;;9.20;99.90;;;;;;4214462;28;19932;-64
2022/10/03 00:06:33;;;;;;;;;;;9.10;99.90;;;;;;4218145;28;19916;-63
2022/10/03 00:08:46;;;;;;;;;;;9.10;99.90;;;;;;4210770;28;19916;-63
2022/10/03 00:10:46;;;;;;;;;;;9.10;99.90;;;;;;4212683;28;19937;-60
2022/10/03 00:13:06;;;;;;;;;;;9.00;99.90;;;;;;4210846;28;19995;-61
2022/10/03 00:15:12;;;;;;;;;;;9.00;99.90;;;;;;4223429;28;19915;-63
2022/10/03 00:17:15;;;;;;;;;;;9.00;99.90;;;;;;4227428;28;19920;-62
2022/10/03 00:19:17;;;;;;;;;;;9.00;99.90;;;;;;4228429;28;19911;-64
2022/10/03 00:21:21;;;;;;;;;;;9.00;99.90;;;;;;4227739;28;19907;-64
2022/10/03 00:23:27;;;;;;;;;;;9.00;99.90;;;;;;4228768;28;19924;-61
2022/10/03 00:25:28;;;;;;;;;;;9.10;99.90;;;;;;4227665;28;20302;-63
2022/10/03 00:27:29;;;;;;;;;;;9.10;99.90;;;;;;4244083;28;19953;-62
2022/10/03 00:29:50;;;;;;;;;;;9.10;99.90;;;;;;4221983;28;20356;-62
2022/10/03 00:32:06;;;;;;;;;;;9.10;99.90;;;;;;4216068;28;19935;-63
2022/10/03 00:34:22;;;;;;;;;;;9.10;99.90;;;;;;4230573;28;19916;-64
2022/10/03 00:36:26;;;;;;;;;;;9.10;99.90;;;;;;4228992;28;19911;-65
2022/10/03 00:38:27;;;;;;;;;;;9.10;99.90;;;;;;4225646;28;19989;-63
2022/10/03 00:40:46;;;;;;;;;;;9.10;99.90;;;;;;4228780;28;19912;-62
2022/10/03 00:42:47;;;;;;;;;;;9.20;99.90;;;;;;4227489;28;20455;-63
2022/10/03 00:45:07;;;;;;;;;;;9.20;99.90;;;;;;4228139;28;19911;-64
2022/10/03 00:47:07;;;;;;;;;;;9.20;99.90;;;;;;4227531;28;19972;-63
2022/10/03 00:49:26;;;;;;;;;;;9.30;99.90;;;;;;4228032;28;20312;-62
2022/10/03 00:51:46;;;;;;;;;;;9.30;99.90;;;;;;4227456;28;20321;-63
2022/10/03 00:54:05;;;;;;;;;;;9.30;99.90;;;;;;4228595;28;19953;-62
2022/10/03 00:56:23;;;;;;;;;;;9.40;99.90;;;;;;4227324;28;19912;-63
2022/10/03 00:58:57;;;;;;;;;;;9.40;99.90;;;;;;4229181;28;20261;-62
2022/10/03 01:01:04;;;;;;;;;;;9.40;99.90;;;;;;4185516;28;20975;-63
2022/10/03 01:03:20;;;;;;;;;;;9.40;99.90;;;;;;4230953;28;19937;-66
2022/10/03 01:05:30;;;;;;;;;;;9.40;99.90;;;;;;4229580;28;19911;-61
2022/10/03 01:07:49;;;;;;;;;;;9.50;99.90;;;;;;4214427;28;19908;-64
2022/10/03 01:10:00;;;;;;;;;;;9.50;99.90;;;;;;4227676;28;19916;-62
2022/10/03 01:12:24;;;;;;;;;;;9.50;99.90;;;;;;4227136;28;19927;-63
2022/10/03 01:14:40;;;;;;;;;;;9.50;99.90;;;;;;4213666;28;20330;-64
2022/10/03 01:16:44;;;;;;;;;;;9.60;99.90;;;;;;4213391;28;19912;-63
2022/10/03 01:18:54;;;;;;;;;;;9.60;99.90;;;;;;4214271;28;20352;-63
2022/10/03 01:21:13;;;;;;;;;;;9.60;99.90;;;;;;4213404;28;20321;-63
2022/10/03 01:23:14;;;;;;;;;;;9.60;99.90;;;;;;4214461;28;20413;-64
2022/10/03 01:25:18;;;;;;;;;;;9.60;99.90;;;;;;4213174;28;19912;-62
2022/10/03 01:27:32;;;;;;;;;;;9.70;99.90;;;;;;4214193;28;19912;-63
2022/10/03 01:32:16;;;;;;;;;;;9.80;99.90;;;;;;4219045;28;19985;-63
2022/10/03 01:34:23;;;;;;;;;;;9.90;99.90;;;;;;4224331;28;19915;-63
2022/10/03 01:36:29;;;;;;;;;;;9.90;99.90;;;;;;4230411;28;19961;-63
2022/10/03 01:38:32;;;;;;;;;;;9.90;99.90;;;;;;4213141;28;19916;-64
2022/10/03 01:40:48;;;;;;;;;;;10.00;99.90;;;;;;4214139;28;19970;-63
2022/10/03 01:43:01;;;;;;;;;;;10.00;99.90;;;;;;4226237;28;20304;-62
2022/10/03 01:45:11;;;;;;;;;;;10.00;99.90;;;;;;4231048;28;19907;-64
2022/10/03 01:47:31;;;;;;;;;;;10.00;99.90;;;;;;4228589;28;20318;-63
2022/10/03 01:49:45;;;;;;;;;;;10.00;99.90;;;;;;4214004;28;19908;-62
2022/10/03 01:52:05;;;;;;;;;;;10.00;99.90;;;;;;4212844;28;19962;-64
2022/10/03 01:54:06;;;;;;;;;;;10.00;99.90;;;;;;4213953;28;19937;-62
2022/10/03 01:56:11;;;;;;;;;;;9.90;99.90;;;;;;4212861;28;19958;-68
2022/10/03 01:58:25;;;;;;;;;;;10.00;99.90;;;;;;4213825;28;19961;-64
2022/10/03 02:00:32;;;;;;;;;;;10.00;99.90;;;;;;4227911;28;20368;-63
2022/10/03 02:02:33;;;;;;;;;;;10.00;99.90;;;;;;4214572;28;19916;-63
2022/10/03 02:04:40;;;;;;;;;;;10.00;99.90;;;;;;4212501;28;19916;-62
2022/10/03 02:06:43;;;;;;;;;;;10.10;99.90;;;;;;4214118;28;19985;-63
2022/10/03 02:08:50;;;;;;;;;;;10.10;99.90;;;;;;4212216;28;19969;-62
2022/10/03 02:11:08;;;;;;;;;;;10.10;99.90;;;;;;4214535;28;19916;-62
2022/10/03 02:13:13;;;;;;;;;;;10.10;99.90;;;;;;4212431;28;19916;-62
2022/10/03 02:15:15;;;;;;;;;;;10.10;99.90;;;;;;4237809;27;19915;-62
2022/10/03 02:17:22;;;;;;;;;;;10.10;99.90;;;;;;4229239;28;19916;-62
2022/10/03 02:19:35;;;;;;;;;;;10.10;99.90;;;;;;4230215;28;19908;-63
2022/10/03 02:21:46;;;;;;;;;;;10.10;99.90;;;;;;4223450;28;20433;-62
2022/10/03 02:23:47;;;;;;;;;;;10.10;99.90;;;;;;4230266;28;19965;-64
2022/10/03 02:25:58;;;;;;;;;;;10.10;99.90;;;;;;4229177;28;19915;-62
2022/10/03 02:28:02;;;;;;;;;;;10.20;99.90;;;;;;4230122;28;19912;-62
2022/10/03 02:30:12;;;;;;;;;;;10.20;99.90;;;;;;4228725;28;20424;-63
2022/10/03 02:32:31;;;;;;;;;;;10.20;99.90;;;;;;4229764;28;19969;-64
2022/10/03 02:34:35;;;;;;;;;;;10.20;99.90;;;;;;4229044;28;20012;-63
2022/10/03 02:36:47;;;;;;;;;;;10.20;99.90;;;;;;4225275;28;19919;-67
2022/10/03 02:39:06;;;;;;;;;;;10.20;99.90;;;;;;4227053;28;20256;-63
2022/10/03 02:41:26;;;;;;;;;;;10.20;99.90;;;;;;4230059;28;19965;-63
2022/10/03 02:43:42;;;;;;;;;;;10.20;99.90;;;;;;4227172;28;19908;-63
2022/10/03 02:46:01;;;;;;;;;;;10.20;99.90;;;;;;4230026;28;19911;-63
2022/10/03 02:48:21;;;;;;;;;;;10.20;99.90;;;;;;4228612;28;19908;-65
2022/10/03 02:50:25;;;;;;;;;;;10.20;99.90;;;;;;4226989;28;19912;-63
2022/10/03 02:52:40;;;;;;;;;;;10.20;99.90;;;;;;4243664;27;19915;-62
2022/10/03 02:55:01;;;;;;;;;;;10.20;99.90;;;;;;4229699;28;20380;-62
2022/10/03 02:57:02;;;;;;;;;;;10.20;99.90;;;;;;4226829;28;20382;-69
2022/10/03 02:59:15;;;;;;;;;;;10.20;99.90;;;;;;4229645;28;19954;-62
2022/10/03 03:01:16;;;;;;;;;;;10.20;99.90;;;;;;4228631;28;19911;-63
2022/10/03 03:03:43;;;;;;;;;;;10.20;99.90;;;;;;4217575;28;20376;-62
2022/10/03 03:05:53;;;;;;;;;;;10.20;99.90;;;;;;4187847;28;19911;-62
2022/10/03 03:08:03;;;;;;;;;;;10.20;99.90;;;;;;4212996;28;19912;-62
2022/10/03 03:10:31;;;;;;;;;;;10.20;99.90;;;;;;4211606;28;19941;-63
2022/10/03 03:12:43;;;;;;;;;;;10.20;99.90;;;;;;4242623;27;19931;-62
2022/10/03 03:15:02;;;;;;;;;;;10.20;99.90;;;;;;4227864;28;19916;-63
2022/10/03 03:17:25;;;;;;;;;;;10.20;99.90;;;;;;4227654;28;19919;-63
2022/10/03 03:19:45;;;;;;;;;;;10.20;99.90;;;;;;4215024;28;20392;-63
2022/10/03 03:21:57;;;;;;;;;;;10.20;99.90;;;;;;4210947;28;20413;-62
2022/10/03 03:24:06;;;;;;;;;;;10.10;99.90;;;;;;4220141;28;19964;-62
2022/10/03 03:26:27;;;;;;;;;;;10.10;99.90;;;;;;4228393;28;19915;-64
2022/10/03 03:28:31;;;;;;;;;;;10.10;99.90;;;;;;4227246;28;19920;-62
2022/10/03 03:30:42;;;;;;;;;;;10.00;99.90;;;;;;4228227;28;20684;-64
2022/10/03 03:33:04;;;;;;;;;;;10.00;99.90;;;;;;4228854;28;19920;-62
2022/10/03 03:35:05;;;;;;;;;;;10.00;99.90;;;;;;4227663;28;19915;-63
2022/10/03 03:37:06;;;;;;;;;;;10.10;99.90;;;;;;4229294;28;19964;-63
2022/10/03 03:39:16;;;;;;;;;;;10.10;99.90;;;;;;4224270;27;19959;-62
2022/10/03 03:41:35;;;;;;;;;;;10.10;99.90;;;;;;4235915;27;19968;-62
2022/10/03 03:43:36;;;;;;;;;;;10.10;99.90;;;;;;4227903;28;19907;-62
2022/10/03 03:45:46;;;;;;;;;;;10.10;99.90;;;;;;4226781;28;19911;-62
2022/10/03 03:47:55;;;;;;;;;;;10.10;99.90;;;;;;4227368;28;19964;-62
2022/10/03 03:50:01;;;;;;;;;;;10.20;99.90;;;;;;4228023;28;20345;-62
2022/10/03 03:52:02;;;;;;;;;;;10.20;99.90;;;;;;4220995;28;19924;-65
2022/10/03 03:54:33;;;;;;;;;;;10.20;99.90;;;;;;4211576;28;19912;-62
2022/10/03 03:56:54;;;;;;;;;;;10.30;99.90;;;;;;4197269;28;19920;-63
2022/10/03 03:59:01;;;;;;;;;;;10.20;99.90;;;;;;4204181;28;20409;-64
2022/10/03 04:01:05;;;;;;;;;;;10.20;99.90;;;;;;4210710;28;19920;-64
2022/10/03 04:03:38;;;;;;;;;;;10.20;99.90;;;;;;4222557;28;20327;-62
2022/10/03 04:05:39;;;;;;;;;;;10.20;99.90;;;;;;4181890;28;20040;-62
2022/10/03 04:08:09;;;;;;;;;;;10.20;99.90;;;;;;4242953;28;19907;-63
2022/10/03 04:10:29;;;;;;;;;;;10.20;99.90;;;;;;4207896;28;19912;-63
2022/10/03 04:12:30;;;;;;;;;;;10.20;99.90;;;;;;4237741;28;19920;-62
2022/10/03 04:14:34;;;;;;;;;;;10.20;99.90;;;;;;4210277;28;19908;-64
2022/10/03 04:19:13;;;;;;;;;;;10.20;99.90;;;;;;4210119;28;19965;-64
2022/10/03 04:21:28;;;;;;;;;;;10.20;99.90;;;;;;4213610;28;19916;-63
2022/10/03 04:23:35;;;;;;;;;;;10.20;99.90;;;;;;4209743;28;19993;-63
2022/10/03 04:25:45;;;;;;;;;;;10.20;99.90;;;;;;4211982;28;19997;-62
2022/10/03 04:28:06;;;;;;;;;;;10.10;99.90;;;;;;4210073;28;19962;-63
2022/10/03 04:30:10;;;;;;;;;;;10.20;99.90;;;;;;4212432;28;19962;-64
2022/10/03 04:32:22;;;;;;;;;;;10.00;99.90;;;;;;4227520;28;19961;-64
2022/10/03 04:34:30;;;;;;;;;;;10.00;99.90;;;;;;4225639;28;19912;-62
2022/10/03 04:36:48;;;;;;;;;;;9.90;99.90;;;;;;4229738;28;19972;-62
2022/10/03 04:39:01;;;;;;;;;;;9.90;99.90;;;;;;4231755;28;19953;-63
2022/10/03 04:41:02;;;;;;;;;;;9.90;99.90;;;;;;4230304;28;20300;-63
2022/10/03 04:43:04;;;;;;;;;;;10.00;99.90;;;;;;4231548;28;19937;-63
2022/10/03 04:45:27;;;;;;;;;;;10.10;99.90;;;;;;4230264;28;20379;-63
2022/10/03 04:47:37;;;;;;;;;;;10.10;99.90;;;;;;4231469;28;20298;-63
2022/10/03 04:49:41;;;;;;;;;;;10.20;99.90;;;;;;4230016;28;19964;-63
2022/10/03 04:52:05;;;;;;;;;;;10.20;99.90;;;;;;4216759;28;19981;-64
2022/10/03 04:54:18;;;;;;;;;;;10.20;99.90;;;;;;4215878;28;19923;-62
2022/10/03 04:56:37;;;;;;;;;;;10.20;99.90;;;;;;4214197;28;19908;-62
2022/10/03 04:58:42;;;;;;;;;;;10.20;99.90;;;;;;4218084;28;19969;-63
2022/10/03 05:01:04;;;;;;;;;;;10.20;99.90;;;;;;4241514;27;19912;-63
2022/10/03 05:03:21;;;;;;;;;;;10.20;99.90;;;;;;4229203;28;20377;-63
2022/10/03 05:05:30;;;;;;;;;;;10.20;99.90;;;;;;4224017;28;20391;-64
2022/10/03 05:07:41;;;;;;;;;;;10.20;99.90;;;;;;4214889;28;19974;-63
2022/10/03 05:10:00;;;;;;;;;;;10.20;99.90;;;;;;4227324;28;19957;-63
2022/10/03 05:12:06;;;;;;;;;;;10.20;99.90;;;;;;4229039;28;19928;-63
2022/10/03 05:14:07;;;;;;;;;;;10.20;99.90;;;;;;4230339;28;20326;-63
2022/10/03 05:16:14;;;;;;;;;;;10.20;99.90;;;;;;4224011;28;19917;-63
2022/10/03 05:18:53;;;;;;;;;;;10.30;99.90;;;;;;4227018;28;19912;-63
2022/10/03 05:20:54;;;;;;;;;;;10.30;99.90;;;;;;4173435;28;20389;-63
2022/10/03 05:23:10;;;;;;;;;;;10.40;99.90;;;;;;4166314;28;19945;-62
2022/10/03 05:25:21;;;;;;;;;;;10.40;99.90;;;;;;4176383;28;19943;-61
2022/10/03 05:27:25;;;;;;;;;;;10.50;99.90;;;;;;4223972;28;19916;-62
2022/10/03 05:29:34;;;;;;;;;;;10.60;99.90;;;;;;4226557;28;20327;-62
2022/10/03 05:31:43;;;;;;;;;;;10.60;99.90;;;;;;4226559;28;19964;-63
2022/10/03 05:33:53;;;;;;;;;;;10.70;99.90;;;;;;4230170;28;19941;-64
2022/10/03 05:35:53;;;;;;;;;;;10.80;99.90;;;;;;4226701;28;20329;-62
2022/10/03 05:37:54;;;;;;;;;;;10.80;99.90;;;;;;4231009;28;19914;-63
2022/10/03 05:40:03;;;;;;;;;;;10.80;99.90;;;;;;4230302;28;20421;-62
2022/10/03 05:42:30;;;;;;;;;;;10.80;99.90;;;;;;4219775;28;19920;-63
2022/10/03 05:44:42;;;;;;;;;;;10.90;99.90;;;;;;4193538;28;19942;-62
2022/10/03 05:46:46;;;;;;;;;;;10.90;99.90;;;;;;4211650;28;19914;-62
2022/10/03 05:49:10;;;;;;;;;;;11.10;99.90;;;;;;4226653;28;19988;-64
2022/10/03 05:51:19;;;;;;;;;;;11.10;99.90;;;;;;4221504;28;20414;-62
2022/10/03 05:53:20;;;;;;;;;;;11.20;99.90;;;;;;4224637;28;19920;-65
2022/10/03 05:55:20;;;;;;;;;;;11.30;99.90;;;;;;4216311;28;19918;-63
2022/10/03 05:57:22;;;;;;;;;;;11.30;99.90;;;;;;4215160;28;19912;-63
2022/10/03 05:59:43;;;;;;;;;;;11.40;99.90;;;;;;4227590;28;20351;-61
2022/10/03 06:01:46;;;;;;;;;;;11.50;99.90;;;;;;4228909;28;19957;-62
2022/10/03 06:03:50;;;;;;;;;;;11.70;99.90;;;;;;4228648;28;19961;-62
2022/10/03 06:05:58;;;;;;;;;;;12.10;99.90;;;;;;4228697;28;20321;-62
2022/10/03 06:08:02;;;;;;;;;;;12.20;99.90;;;;;;4229074;28;19954;-62
2022/10/03 06:10:03;;;;;;;;;;;12.20;99.90;;;;;;4228852;28;19919;-63
2022/10/03 06:12:04;;;;;;;;;;;12.20;99.90;;;;;;4228056;28;19923;-61
2022/10/03 06:14:14;;;;;;;;;;;12.20;99.90;;;;;;4229711;28;19916;-62
2022/10/03 06:16:24;;;;;;;;;;;12.10;99.90;;;;;;4228937;28;19915;-62
2022/10/03 06:18:43;;;;;;;;;;;12.10;99.90;;;;;;4229787;28;19964;-62
2022/10/03 06:20:56;;;;;;;;;;;12.00;99.90;;;;;;4228914;28;19957;-62
2022/10/03 06:23:06;;;;;;;;;;;12.00;99.90;;;;;;4229428;28;19916;-63
2022/10/03 06:25:08;;;;;;;;;;;12.00;99.90;;;;;;4243872;27;19911;-63
2022/10/03 06:27:24;;;;;;;;;;;12.00;99.90;;;;;;4229420;28;20364;-63
2022/10/03 06:29:25;;;;;;;;;;;12.00;99.90;;;;;;4228829;28;20318;-63
2022/10/03 06:31:48;;;;;;;;;;;12.00;99.90;;;;;;4229378;28;19911;-63
2022/10/03 06:33:54;;;;;;;;;;;12.00;99.90;;;;;;4228636;28;19957;-63
2022/10/03 06:36:08;;;;;;;;;;;12.10;99.90;;;;;;4244372;27;19960;-63
2022/10/03 06:38:15;;;;;;;;;;;12.30;99.90;;;;;;4229152;28;20337;-63
2022/10/03 06:40:36;;;;;;;;;;;12.40;99.90;;;;;;4229329;28;19965;-62
2022/10/03 06:42:59;;;;;;;;;;;12.50;99.90;;;;;;4228654;28;19950;-63
2022/10/03 06:45:08;;;;;;;;;;;12.50;99.90;;;;;;4228560;28;19911;-63
2022/10/03 06:47:21;;;;;;;;;;;12.40;99.90;;;;;;4228853;28;20433;-63
2022/10/03 06:49:28;;;;;;;;;;;12.50;99.90;;;;;;4228646;28;19920;-62
2022/10/03 06:51:48;;;;;;;;;;;12.50;99.90;;;;;;4228828;28;20360;-63
2022/10/03 06:54:01;;;;;;;;;;;12.50;99.90;;;;;;4228582;28;20249;-62
2022/10/03 06:56:18;;;;;;;;;;;12.60;99.90;;;;;;4227972;28;19957;-62
2022/10/03 06:58:22;;;;;;;;;;;12.80;99.90;;;;;;4227922;28;19912;-62
2022/10/03 07:00:31;;;;;;;;;;;13.10;99.90;;;;;;4228586;28;19908;-62
2022/10/03 07:02:41;;;;;;;;;;;13.30;99.90;;;;;;4227682;28;19912;-63
2022/10/03 07:04:51;;;;;;;;;;;13.60;99.90;;;;;;4243945;27;19960;-61
2022/10/03 07:07:15;;;;;;;;;;;13.90;99.90;;;;;;4227872;28;19907;-63
2022/10/03 07:09:34;;;;;;;;;;;14.20;99.90;;;;;;4190508;28;19911;-63
2022/10/03 07:11:54;;;;;;;;;;;14.50;99.90;;;;;;4227739;28;19922;-63
2022/10/03 07:14:15;;;;;;;;;;;14.60;99.90;;;;;;4228796;28;19916;-62
2022/10/03 07:16:23;;;;;;;;;;;14.70;99.90;;;;;;4227793;28;20048;-63
2022/10/03 07:18:36;;;;;;;;;;;15.00;99.90;;;;;;4228992;28;19907;-63
2022/10/03 07:20:52;;;;;;;;;;;14.80;99.90;;;;;;4227611;28;20698;-63
2022/10/03 07:23:13;;;;;;;;;;;14.90;99.90;;;;;;4228930;28;19908;-62
2022/10/03 07:25:14;;;;;;;;;;;14.80;99.90;;;;;;4227745;28;19908;-60
2022/10/03 07:27:30;;;;;;;;;;;14.90;99.90;;;;;;4228874;28;20306;-63
2022/10/03 07:29:49;;;;;;;;;;;14.90;99.90;;;;;;4227730;28;19911;-62
2022/10/03 07:31:59;;;;;;;;;;;15.00;99.90;;;;;;4228647;28;19953;-62
2022/10/03 07:34:02;;;;;;;;;;;14.90;99.90;;;;;;4227483;28;19934;-62
2022/10/03 07:38:58;;;;;;;;;;;14.90;99.90;;;;;;4228055;28;19934;-63
2022/10/03 07:40:59;;;;;;;;;;;14.80;99.90;;;;;;4227492;28;20021;-63
2022/10/03 07:43:00;;;;;;;;;;;14.60;99.90;;;;;;4227941;28;19978;-62
2022/10/03 07:45:10;;;;;;;;;;;14.50;99.90;;;;;;4228486;28;19908;-63
2022/10/03 07:47:30;;;;;;;;;;;14.70;99.90;;;;;;4227397;28;19908;-66
2022/10/03 07:49:36;;;;;;;;;;;14.80;99.90;;;;;;4228105;28;19908;-63
2022/10/03 07:51:42;;;;;;;;;;;14.80;99.90;;;;;;4227501;28;19907;-64
2022/10/03 07:54:01;;;;;;;;;;;14.70;99.90;;;;;;4227050;28;20321;-62
2022/10/03 07:56:12;;;;;;;;;;;14.70;99.90;;;;;;4214362;28;19912;-62
2022/10/03 07:58:19;;;;;;;;;;;14.70;99.90;;;;;;4216518;28;19916;-63
2022/10/03 08:00:21;;;;;;;;;;;14.60;99.90;;;;;;4216874;28;19936;-66
2022/10/03 08:02:36;;;;;;;;;;;14.80;99.90;;;;;;4225970;28;20024;-64
2022/10/03 08:04:37;;;;;;;;;;;14.70;99.90;;;;;;4211088;28;19912;-65
2022/10/03 08:06:45;;;;;;;;;;;14.60;99.90;;;;;;4215805;28;20509;-65
2022/10/03 08:09:04;;;;;;;;;;;14.70;99.90;;;;;;4226036;28;20424;-65
2022/10/03 08:11:24;;;;;;;;;;;14.70;99.90;;;;;;4227548;28;19958;-63
2022/10/03 08:13:34;;;;;;;;;;;14.90;99.90;;;;;;4219277;28;19924;-66
2022/10/03 08:15:41;;;;;;;;;;;15.00;99.90;;;;;;4227352;28;19919;-64
2022/10/03 08:17:49;;;;;;;;;;;14.90;99.90;;;;;;4224839;28;19911;-64
2022/10/03 08:20:08;;;;;;;;;;;14.90;99.90;;;;;;4219155;28;19916;-64
2022/10/03 08:22:09;;;;;;;;;;;15.00;99.90;;;;;;4224247;28;19912;-66
2022/10/03 08:24:42;;;;;;;;;;;15.20;99.90;;;;;;4227390;28;19912;-63
2022/10/03 08:26:43;;;;;;;;;;;15.30;99.90;;;;;;4179472;28;19915;-65
2022/10/03 08:28:55;;;;;;;;;;;15.50;99.90;;;;;;4223234;28;19931;-64
2022/10/03 08:31:01;;;;;;;;;;;15.50;99.90;;;;;;4213212;28;19965;-64
2022/10/03 08:33:11;;;;;;;;;;;15.50;99.90;;;;;;4220311;28;19965;-64
2022/10/03 08:35:18;;;;;;;;;;;15.30;99.90;;;;;;4217516;28;19970;-65
2022/10/03 08:37:38;;;;;;;;;;;15.30;99.90;;;;;;4223701;28;19969;-63
2022/10/03 08:39:48;;;;;;;;;;;15.40;99.90;;;;;;4225215;28;19960;-65
2022/10/03 08:41:59;;;;;;;;;;;15.70;99.90;;;;;;4219456;28;20327;-62
2022/10/03 08:44:18;;;;;;;;;;;15.90;99.90;;;;;;4220169;28;19933;-64
2022/10/03 08:46:28;;;;;;;;;;;16.10;99.90;;;;;;4221041;28;20359;-65
2022/10/03 08:48:45;;;;;;;;;;;16.00;99.90;;;;;;4211399;28;19988;-63
2022/10/03 08:50:53;;;;;;;;;;;15.90;99.90;;;;;;4211258;28;20002;-63
2022/10/03 08:53:06;;;;;;;;;;;16.20;99.90;;;;;;4222678;28;19919;-63
2022/10/03 08:55:22;;;;;;;;;;;16.30;99.90;;;;;;4221757;28;19957;-62
2022/10/03 08:57:42;;;;;;;;;;;16.30;99.90;;;;;;4219621;28;20909;-63
2022/10/03 08:59:58;;;;;;;;;;;16.10;99.90;;;;;;4220153;28;19954;-64
2022/10/03 09:02:25;;;;;;;;;;;16.10;99.90;;;;;;4216814;28;19973;-63
2022/10/03 09:04:38;;;;;;;;;;;15.90;99.90;;;;;;4211971;28;19908;-62
2022/10/03 09:06:57;;;;;;;;;;;15.60;99.90;;;;;;4215986;28;19958;-63
2022/10/03 09:08:58;;;;;;;;;;;15.30;99.90;;;;;;4215012;28;20268;-62
2022/10/03 09:11:18;;;;;;;;;;;15.10;99.90;;;;;;4225700;28;19919;-63
2022/10/03 09:13:37;;;;;;;;;;;15.20;99.90;;;;;;4215975;28;19975;-63
2022/10/03 09:16:05;;;;;;;;;;;15.50;99.90;;;;;;4220814;28;19915;-62
2022/10/03 09:18:41;;;;;;;;;;;15.40;99.90;;;;;;4185239;28;19915;-65
2022/10/03 09:20:42;;;;;;;;;;;15.70;99.90;;;;;;4159865;28;19947;-65
2022/10/03 09:22:45;;;;;;;;;;;15.70;99.90;;;;;;4196640;28;19931;-63
2022/10/03 09:25:05;;;;;;;;;;;15.80;99.90;;;;;;4218865;28;19961;-63
2022/10/03 09:27:11;;;;;;;;;;;15.70;99.90;;;;;;4224955;28;19915;-65
2022/10/03 09:29:24;;;;;;;;;;;15.80;99.90;;;;;;4229852;28;19912;-64
2022/10/03 09:31:43;;;;;;;;;;;15.80;99.90;;;;;;4221649;28;19953;-65
2022/10/03 09:34:03;;;;;;;;;;;15.80;99.90;;;;;;4225780;28;19992;-65
2022/10/03 09:36:19;;;;;;;;;;;15.90;99.90;;;;;;4222548;28;19912;-64
2022/10/03 09:38:31;;;;;;;;;;;15.70;99.90;;;;;;4229408;28;19965;-63
2022/10/03 09:40:56;;;;;;;;;;;15.80;99.90;;;;;;4223393;28;19916;-65
2022/10/03 09:43:21;;;;;;;;;;;15.80;99.90;;;;;;4219885;28;19920;-66
2022/10/03 09:45:54;;;;;;;;;;;15.90;99.90;;;;;;4229239;28;19957;-65
2022/10/03 09:47:58;;;;;;;;;;;15.90;99.90;;;;;;4171921;28;19965;-66
2022/10/03 09:49:59;;;;;;;;;;;15.90;99.90;;;;;;4230104;28;19911;-65
2022/10/03 09:52:21;;;;;;;;;;;16.00;99.90;;;;;;4228433;28;19914;-63
2022/10/03 09:54:25;;;;;;;;;;;16.00;99.90;;;;;;4226870;28;19916;-61
2022/10/03 09:56:43;;;;;;;;;;;16.10;99.90;;;;;;4226009;28;19957;-63
2022/10/03 09:59:12;;;;;;;;;;;16.10;99.90;;;;;;4217864;28;19923;-64
2022/10/03 10:01:31;;;;;;;;;;;16.00;99.90;;;;;;4209601;28;20277;-62
2022/10/03 10:03:48;;;;;;;;;;;16.00;99.90;;;;;;4224589;28;19911;-63
2022/10/03 10:05:51;;;;;;;;;;;15.90;99.90;;;;;;4226216;28;19941;-66
2022/10/03 10:08:11;;;;;;;;;;;15.80;99.90;;;;;;4228256;28;19912;-64
2022/10/03 10:10:13;;;;;;;;;;;15.70;99.90;;;;;;4224681;28;19924;-63
2022/10/03 10:12:32;;;;;;;;;;;15.50;99.80;;;;;;4218540;28;19952;-63
2022/10/03 10:14:33;;;;;;;;;;;15.50;99.80;;;;;;4227381;28;19973;-63
2022/10/03 10:16:53;;;;;;;;;;;15.40;99.80;;;;;;4222370;28;20295;-62
2022/10/03 10:19:12;;;;;;;;;;;15.40;99.80;;;;;;4226493;28;20413;-63
2022/10/03 10:21:32;;;;;;;;;;;15.60;99.90;;;;;;4228015;28;20264;-63
2022/10/03 10:23:42;;;;;;;;;;;15.60;99.70;;;;;;4213116;28;19916;-63
2022/10/03 10:25:58;;;;;;;;;;;15.60;99.90;;;;;;4222623;28;20330;-64
2022/10/03 10:27:58;;;;;;;;;;;15.50;99.90;;;;;;4212304;28;19912;-64
2022/10/03 10:30:15;;;;;;;;;;;15.10;99.90;;;;;;4227101;28;19938;-63
2022/10/03 10:32:48;;;;;;;;;;;14.70;99.90;;;;;;4213793;28;19912;-63
2022/10/03 10:34:52;;;;;;;;;;;14.30;99.90;;;;;;4186660;28;19927;-64
2022/10/03 10:36:59;;;;;;;;;;;14.00;99.90;;;;;;4218482;28;19965;-63
2022/10/03 10:39:00;;;;;;;;;;;13.90;99.90;;;;;;4228152;28;19916;-63
2022/10/03 10:41:19;;;;;;;;;;;13.80;99.90;;;;;;4228805;28;20393;-68
2022/10/03 10:43:23;;;;;;;;;;;13.80;99.90;;;;;;4228256;28;19912;-66
2022/10/03 10:45:29;;;;;;;;;;;13.80;99.90;;;;;;4227185;28;20381;-62
2022/10/03 10:47:49;;;;;;;;;;;14.00;99.90;;;;;;4228144;28;19911;-66
2022/10/03 10:49:56;;;;;;;;;;;14.10;99.90;;;;;;4229564;28;19908;-63
2022/10/03 10:52:06;;;;;;;;;;;14.10;99.90;;;;;;4228072;28;19953;-65
2022/10/03 10:54:27;;;;;;;;;;;14.20;99.90;;;;;;4229159;28;20839;-65
2022/10/03 10:56:47;;;;;;;;;;;14.20;99.90;;;;;;4226603;28;20253;-64
2022/10/03 10:58:51;;;;;;;;;;;14.40;99.90;;;;;;4227220;28;19924;-64
2022/10/03 11:01:04;;;;;;;;;;;14.50;99.90;;;;;;4213495;28;19916;-65
2022/10/03 11:03:23;;;;;;;;;;;14.80;99.90;;;;;;4211642;28;19969;-65
2022/10/03 11:05:39;;;;;;;;;;;14.90;99.90;;;;;;4223578;28;20321;-63
2022/10/03 11:07:58;;;;;;;;;;;15.00;99.90;;;;;;4223693;28;19957;-62
2022/10/03 11:09:59;;;;;;;;;;;14.90;99.90;;;;;;4227596;28;19908;-62
2022/10/03 11:12:15;;;;;;;;;;;14.80;99.90;;;;;;4228609;28;19908;-63
2022/10/03 11:14:27;;;;;;;;;;;14.70;99.90;;;;;;4227541;28;19919;-64
2022/10/03 11:16:52;;;;;;;;;;;14.60;99.90;;;;;;4228167;28;19916;-64
2022/10/03 11:19:12;;;;;;;;;;;14.60;99.90;;;;;;4225276;28;19911;-62
2022/10/03 11:21:32;;;;;;;;;;;14.60;99.90;;;;;;4228531;28;19976;-64
2022/10/03 11:23:51;;;;;;;;;;;14.70;99.90;;;;;;4226329;28;19956;-61
2022/10/03 11:26:10;;;;;;;;;;;15.00;99.90;;;;;;4227723;27;19996;-63
2022/10/03 11:28:11;;;;;;;;;;;15.10;99.90;;;;;;4225913;28;19919;-62
2022/10/03 11:30:19;;;;;;;;;;;15.20;99.90;;;;;;4223877;28;19918;-63
2022/10/03 11:32:31;;;;;;;;;;;15.40;99.90;;;;;;4227681;28;20281;-65
2022/10/03 11:34:38;;;;;;;;;;;15.50;99.90;;;;;;4227819;28;19920;-65
2022/10/03 11:36:41;;;;;;;;;;;15.60;99.90;;;;;;4242781;27;20340;-63
2022/10/03 11:39:01;;;;;;;;;;;15.70;99.90;;;;;;4228725;28;20367;-64
2022/10/03 11:41:02;;;;;;;;;;;15.90;99.90;;;;;;4227608;28;20008;-65
2022/10/03 11:43:05;;;;;;;;;;;16.00;99.90;;;;;;4220038;28;19908;-64
2022/10/03 11:45:25;;;;;;;;;;;16.00;99.90;;;;;;4218735;28;20032;-64
2022/10/03 11:47:55;;;;;;;;;;;16.10;99.90;;;;;;4217135;28;19968;-64
2022/10/03 11:49:59;;;;;;;;;;;16.20;99.90;;;;;;4158921;28;19913;-66
2022/10/03 11:52:22;;;;;;;;;;;16.30;99.90;;;;;;4224973;28;19957;-66
2022/10/03 11:54:29;;;;;;;;;;;16.30;99.70;;;;;;4226300;28;20341;-65
2022/10/03 11:56:34;;;;;;;;;;;16.30;99.60;;;;;;4226562;28;20428;-65
2022/10/03 11:58:55;;;;;;;;;;;16.40;99.40;;;;;;4226584;28;20457;-65
2022/10/03 12:01:15;;;;;;;;;;;16.40;99.50;;;;;;4225452;28;20313;-65
2022/10/03 12:03:19;;;;;;;;;;;16.60;99.70;;;;;;4227999;28;19912;-66
2022/10/03 12:05:26;;;;;;;;;;;16.70;99.00;;;;;;4225638;28;19907;-62
2022/10/03 12:10:04;;;;;;;;;;;16.70;96.80;;;;;;4226769;28;19961;-66
2022/10/03 12:12:16;;;;;;;;;;;16.80;97.30;;;;;;4220106;28;19916;-64
2022/10/03 12:14:22;;;;;;;;;;;16.80;98.00;;;;;;4209723;28;20000;-65
2022/10/03 12:16:26;;;;;;;;;;;16.70;97.80;;;;;;4212043;28;19916;-65
2022/10/03 12:18:41;;;;;;;;;;;16.70;97.70;;;;;;4209938;28;19912;-65
2022/10/03 12:21:01;;;;;;;;;;;16.60;97.60;;;;;;4211327;28;20279;-66
2022/10/03 12:23:04;;;;;;;;;;;16.40;98.10;;;;;;4209809;28;19916;-65
2022/10/03 12:25:25;;;;;;;;;;;16.20;98.30;;;;;;4210906;28;20395;-65
2022/10/03 12:27:45;;;;;;;;;;;16.10;99.10;;;;;;4216040;28;19912;-63
2022/10/03 12:29:53;;;;;;;;;;;15.60;99.90;;;;;;4211033;28;20630;-63
2022/10/03 12:32:06;;;;;;;;;;;15.00;99.90;;;;;;4225890;28;19908;-63
2022/10/03 12:34:34;;;;;;;;;;;14.50;99.90;;;;;;4226572;28;19969;-63
2022/10/03 12:36:57;;;;;;;;;;;14.10;99.90;;;;;;4226303;28;19973;-67
2022/10/03 12:39:01;;;;;;;;;;;13.70;99.90;;;;;;4225513;28;19916;-64
2022/10/03 12:41:25;;;;;;;;;;;13.60;99.90;;;;;;4213621;28;19941;-64
2022/10/03 12:43:36;;;;;;;;;;;13.50;99.90;;;;;;4184236;28;19919;-63
2022/10/03 12:45:48;;;;;;;;;;;13.60;99.90;;;;;;4214059;28;19916;-64
2022/10/03 12:48:01;;;;;;;;;;;13.60;99.90;;;;;;4224543;28;19912;-63
2022/10/03 12:50:12;;;;;;;;;;;13.70;99.90;;;;;;4210487;28;20372;-61
2022/10/03 12:52:26;;;;;;;;;;;13.80;99.90;;;;;;4220976;28;19968;-64
2022/10/03 12:54:30;;;;;;;;;;;13.80;99.90;;;;;;4228237;28;19916;-63
2022/10/03 12:56:47;;;;;;;;;;;13.80;99.90;;;;;;4229912;28;19960;-65
2022/10/03 12:59:14;;;;;;;;;;;13.80;99.90;;;;;;4226707;28;19972;-65